sensor_id;sensor_type;location;lat;lon;timestamp;temperature;humidity
63317;DHT22;49822;41.468;13.560;2023-07-20T00:00:14;25.80;82.70
63317;DHT22;49822;41.468;13.560;2023-07-20T00:02:41;25.80;82.20
63317;DHT22;49822;41.468;13.560;2023-07-20T00:05:07;25.90;82.30
63317;DHT22;49822;41.468;13.560;2023-07-20T00:07:33;25.90;82.10
63317;DHT22;49822;41.468;13.560;2023-07-20T00:09:59;25.90;82.30
63317;DHT22;49822;41.468;13.560;2023-07-20T00:12:25;25.80;82.80
63317;DHT22;49822;41.468;13.560;2023-07-20T00:14:51;25.60;84.20
63317;DHT22;49822;41.468;13.560;2023-07-20T00:17:19;25.30;84.40
63317;DHT22;49822;41.468;13.560;2023-07-20T00:19:45;25.30;85.60
63317;DHT22;49822;41.468;13.560;2023-07-20T00:22:12;25.20;84.90
63317;DHT22;49822;41.468;13.560;2023-07-20T00:24:39;25.20;85.30
63317;DHT22;49822;41.468;13.560;2023-07-20T00:27:05;25.10;85.40
63317;DHT22;49822;41.468;13.560;2023-07-20T00:29:31;25.20;85.20
63317;DHT22;49822;41.468;13.560;2023-07-20T00:32:01;25.30;84.70
63317;DHT22;49822;41.468;13.560;2023-07-20T00:34:33;25.40;84.50
63317;DHT22;49822;41.468;13.560;2023-07-20T00:37:00;25.50;84.60
63317;DHT22;49822;41.468;13.560;2023-07-20T00:39:26;25.20;84.90
63317;DHT22;49822;41.468;13.560;2023-07-20T00:41:51;25.10;84.90
63317;DHT22;49822;41.468;13.560;2023-07-20T00:44:20;25.20;84.80
63317;DHT22;49822;41.468;13.560;2023-07-20T00:46:46;25.30;84.70
63317;DHT22;49822;41.468;13.560;2023-07-20T00:49:12;25.40;84.40
63317;DHT22;49822;41.468;13.560;2023-07-20T00:51:39;25.40;84.20
63317;DHT22;49822;41.468;13.560;2023-07-20T00:54:05;25.50;84.00
63317;DHT22;49822;41.468;13.560;2023-07-20T00:56:31;25.50;83.80
63317;DHT22;49822;41.468;13.560;2023-07-20T00:59:00;25.50;84.30
63317;DHT22;49822;41.468;13.560;2023-07-20T01:01:27;25.50;84.50
63317;DHT22;49822;41.468;13.560;2023-07-20T01:03:53;25.50;85.10
63317;DHT22;49822;41.468;13.560;2023-07-20T01:12:05;25.50;84.10
63317;DHT22;49822;41.468;13.560;2023-07-20T01:14:34;25.50;83.90
63317;DHT22;49822;41.468;13.560;2023-07-20T01:17:01;25.50;83.90
63317;DHT22;49822;41.468;13.560;2023-07-20T01:19:27;25.40;83.40
63317;DHT22;49822;41.468;13.560;2023-07-20T01:22:00;25.30;83.80
63317;DHT22;49822;41.468;13.560;2023-07-20T01:33:07;25.40;83.80
63317;DHT22;49822;41.468;13.560;2023-07-20T01:35:35;25.40;83.60
63317;DHT22;49822;41.468;13.560;2023-07-20T01:38:02;25.30;83.10
63317;DHT22;49822;41.468;13.560;2023-07-20T01:40:30;25.20;83.10
63317;DHT22;49822;41.468;13.560;2023-07-20T01:42:57;25.20;83.00
63317;DHT22;49822;41.468;13.560;2023-07-20T01:45:25;25.10;83.40
63317;DHT22;49822;41.468;13.560;2023-07-20T01:47:53;25.00;83.90
63317;DHT22;49822;41.468;13.560;2023-07-20T01:50:22;24.70;84.20
63317;DHT22;49822;41.468;13.560;2023-07-20T01:52:48;24.60;84.80
63317;DHT22;49822;41.468;13.560;2023-07-20T01:55:15;24.60;84.70
63317;DHT22;49822;41.468;13.560;2023-07-20T01:57:41;24.60;84.90
63317;DHT22;49822;41.468;13.560;2023-07-20T02:00:08;24.40;85.80
63317;DHT22;49822;41.468;13.560;2023-07-20T02:02:41;24.40;86.80
63317;DHT22;49822;41.468;13.560;2023-07-20T02:05:09;24.30;87.00
63317;DHT22;49822;41.468;13.560;2023-07-20T02:07:35;24.20;87.90
63317;DHT22;49822;41.468;13.560;2023-07-20T02:10:01;24.20;87.80
63317;DHT22;49822;41.468;13.560;2023-07-20T02:12:28;24.10;88.00
63317;DHT22;49822;41.468;13.560;2023-07-20T02:14:55;24.00;89.20
63317;DHT22;49822;41.468;13.560;2023-07-20T02:17:21;23.80;90.10
63317;DHT22;49822;41.468;13.560;2023-07-20T02:19:53;23.80;90.00
63317;DHT22;49822;41.468;13.560;2023-07-20T02:22:21;23.80;91.30
63317;DHT22;49822;41.468;13.560;2023-07-20T02:24:47;23.80;90.30
63317;DHT22;49822;41.468;13.560;2023-07-20T02:27:14;23.90;89.60
63317;DHT22;49822;41.468;13.560;2023-07-20T02:29:41;24.10;89.40
63317;DHT22;49822;41.468;13.560;2023-07-20T02:32:09;24.30;88.10
63317;DHT22;49822;41.468;13.560;2023-07-20T02:34:37;24.30;89.40
63317;DHT22;49822;41.468;13.560;2023-07-20T02:37:03;24.30;88.60
63317;DHT22;49822;41.468;13.560;2023-07-20T02:39:29;24.50;88.10
63317;DHT22;49822;41.468;13.560;2023-07-20T02:41:56;24.50;87.60
63317;DHT22;49822;41.468;13.560;2023-07-20T02:44:22;24.70;87.90
63317;DHT22;49822;41.468;13.560;2023-07-20T02:46:49;24.80;87.00
63317;DHT22;49822;41.468;13.560;2023-07-20T02:49:16;24.80;87.40
63317;DHT22;49822;41.468;13.560;2023-07-20T02:51:42;24.80;86.20
63317;DHT22;49822;41.468;13.560;2023-07-20T02:54:08;24.80;86.20
63317;DHT22;49822;41.468;13.560;2023-07-20T02:56:35;24.80;86.30
63317;DHT22;49822;41.468;13.560;2023-07-20T02:59:04;24.80;86.30
63317;DHT22;49822;41.468;13.560;2023-07-20T03:01:30;24.80;86.70
63317;DHT22;49822;41.468;13.560;2023-07-20T03:03:56;24.80;86.90
63317;DHT22;49822;41.468;13.560;2023-07-20T03:06:23;24.80;86.40
63317;DHT22;49822;41.468;13.560;2023-07-20T03:08:49;24.80;86.20
63317;DHT22;49822;41.468;13.560;2023-07-20T03:11:20;24.50;86.80
63317;DHT22;49822;41.468;13.560;2023-07-20T03:13:49;24.50;87.50
63317;DHT22;49822;41.468;13.560;2023-07-20T03:16:19;24.50;87.30
63317;DHT22;49822;41.468;13.560;2023-07-20T03:18:46;24.60;87.00
63317;DHT22;49822;41.468;13.560;2023-07-20T03:21:12;24.50;86.80
63317;DHT22;49822;41.468;13.560;2023-07-20T03:23:40;24.60;86.70
63317;DHT22;49822;41.468;13.560;2023-07-20T03:26:06;24.60;86.80
63317;DHT22;49822;41.468;13.560;2023-07-20T03:28:37;24.60;86.90
63317;DHT22;49822;41.468;13.560;2023-07-20T03:31:04;24.50;87.90
63317;DHT22;49822;41.468;13.560;2023-07-20T03:33:34;24.50;88.20
63317;DHT22;49822;41.468;13.560;2023-07-20T03:36:01;24.50;87.90
63317;DHT22;49822;41.468;13.560;2023-07-20T03:38:27;24.60;87.30
63317;DHT22;49822;41.468;13.560;2023-07-20T03:40:56;24.60;86.90
63317;DHT22;49822;41.468;13.560;2023-07-20T03:43:23;24.50;86.10
63317;DHT22;49822;41.468;13.560;2023-07-20T03:45:50;24.40;85.00
63317;DHT22;49822;41.468;13.560;2023-07-20T03:48:18;24.30;86.50
63317;DHT22;49822;41.468;13.560;2023-07-20T03:50:46;24.40;86.10
63317;DHT22;49822;41.468;13.560;2023-07-20T03:53:13;24.40;85.80
63317;DHT22;49822;41.468;13.560;2023-07-20T03:55:39;24.40;86.00
63317;DHT22;49822;41.468;13.560;2023-07-20T03:58:07;24.40;86.10
63317;DHT22;49822;41.468;13.560;2023-07-20T04:00:34;24.30;86.20
63317;DHT22;49822;41.468;13.560;2023-07-20T04:03:02;24.30;86.70
63317;DHT22;49822;41.468;13.560;2023-07-20T04:05:28;24.40;87.10
63317;DHT22;49822;41.468;13.560;2023-07-20T04:07:54;24.40;87.60
63317;DHT22;49822;41.468;13.560;2023-07-20T04:10:20;24.50;87.00
63317;DHT22;49822;41.468;13.560;2023-07-20T04:12:50;24.50;86.30
63317;DHT22;49822;41.468;13.560;2023-07-20T04:15:17;24.60;86.10
63317;DHT22;49822;41.468;13.560;2023-07-20T04:17:45;24.50;85.70
63317;DHT22;49822;41.468;13.560;2023-07-20T04:20:12;24.50;85.30
63317;DHT22;49822;41.468;13.560;2023-07-20T04:22:38;24.40;85.20
63317;DHT22;49822;41.468;13.560;2023-07-20T04:25:07;24.50;85.40
63317;DHT22;49822;41.468;13.560;2023-07-20T04:27:34;24.50;86.00
63317;DHT22;49822;41.468;13.560;2023-07-20T04:30:00;24.40;85.70
63317;DHT22;49822;41.468;13.560;2023-07-20T04:32:26;24.30;86.80
63317;DHT22;49822;41.468;13.560;2023-07-20T04:34:52;24.30;88.10
63317;DHT22;49822;41.468;13.560;2023-07-20T04:37:19;24.30;88.10
63317;DHT22;49822;41.468;13.560;2023-07-20T04:39:47;24.30;88.40
63317;DHT22;49822;41.468;13.560;2023-07-20T04:42:13;24.40;88.30
63317;DHT22;49822;41.468;13.560;2023-07-20T04:44:39;24.50;87.70
63317;DHT22;49822;41.468;13.560;2023-07-20T04:47:07;24.60;87.30
63317;DHT22;49822;41.468;13.560;2023-07-20T04:49:37;24.70;87.40
63317;DHT22;49822;41.468;13.560;2023-07-20T04:52:04;24.70;87.20
63317;DHT22;49822;41.468;13.560;2023-07-20T04:54:31;24.70;86.70
63317;DHT22;49822;41.468;13.560;2023-07-20T04:56:57;24.80;87.30
63317;DHT22;49822;41.468;13.560;2023-07-20T04:59:25;24.80;87.10
63317;DHT22;49822;41.468;13.560;2023-07-20T05:01:52;24.90;87.00
63317;DHT22;49822;41.468;13.560;2023-07-20T05:04:18;25.00;88.10
63317;DHT22;49822;41.468;13.560;2023-07-20T05:06:44;25.00;87.90
63317;DHT22;49822;41.468;13.560;2023-07-20T05:09:11;25.20;88.70
63317;DHT22;49822;41.468;13.560;2023-07-20T05:11:37;25.30;87.60
63317;DHT22;49822;41.468;13.560;2023-07-20T05:14:04;25.40;86.80
63317;DHT22;49822;41.468;13.560;2023-07-20T05:16:31;25.30;86.40
63317;DHT22;49822;41.468;13.560;2023-07-20T05:19:02;25.30;86.20
63317;DHT22;49822;41.468;13.560;2023-07-20T05:21:29;25.50;86.60
63317;DHT22;49822;41.468;13.560;2023-07-20T05:23:55;25.60;86.70
63317;DHT22;49822;41.468;13.560;2023-07-20T05:26:24;25.60;86.80
63317;DHT22;49822;41.468;13.560;2023-07-20T05:28:52;25.70;86.90
63317;DHT22;49822;41.468;13.560;2023-07-20T05:31:19;25.80;86.80
63317;DHT22;49822;41.468;13.560;2023-07-20T05:33:45;25.80;86.90
63317;DHT22;49822;41.468;13.560;2023-07-20T05:36:11;25.80;87.40
63317;DHT22;49822;41.468;13.560;2023-07-20T05:38:37;25.70;87.30
63317;DHT22;49822;41.468;13.560;2023-07-20T05:41:03;25.80;88.00
63317;DHT22;49822;41.468;13.560;2023-07-20T05:43:29;25.70;87.90
63317;DHT22;49822;41.468;13.560;2023-07-20T05:45:56;25.80;88.60
63317;DHT22;49822;41.468;13.560;2023-07-20T05:48:23;25.80;89.50
63317;DHT22;49822;41.468;13.560;2023-07-20T05:50:50;25.80;89.60
63317;DHT22;49822;41.468;13.560;2023-07-20T05:53:16;25.80;88.70
63317;DHT22;49822;41.468;13.560;2023-07-20T05:55:42;26.00;89.50
63317;DHT22;49822;41.468;13.560;2023-07-20T05:58:08;26.00;88.60
63317;DHT22;49822;41.468;13.560;2023-07-20T06:00:36;26.10;87.90
63317;DHT22;49822;41.468;13.560;2023-07-20T06:03:02;26.10;88.10
63317;DHT22;49822;41.468;13.560;2023-07-20T06:05:29;26.20;88.20
63317;DHT22;49822;41.468;13.560;2023-07-20T06:07:56;26.40;87.20
63317;DHT22;49822;41.468;13.560;2023-07-20T06:10:23;26.50;86.80
63317;DHT22;49822;41.468;13.560;2023-07-20T06:12:49;26.60;87.00
63317;DHT22;49822;41.468;13.560;2023-07-20T06:15:34;26.80;87.30
63317;DHT22;49822;41.468;13.560;2023-07-20T06:18:01;27.00;86.90
63317;DHT22;49822;41.468;13.560;2023-07-20T06:20:27;27.00;87.30
63317;DHT22;49822;41.468;13.560;2023-07-20T06:22:53;27.00;87.40
63317;DHT22;49822;41.468;13.560;2023-07-20T06:25:19;27.00;87.40
63317;DHT22;49822;41.468;13.560;2023-07-20T06:27:48;27.10;87.50
63317;DHT22;49822;41.468;13.560;2023-07-20T06:30:14;27.10;87.20
63317;DHT22;49822;41.468;13.560;2023-07-20T06:32:41;27.10;86.90
63317;DHT22;49822;41.468;13.560;2023-07-20T06:35:09;27.30;87.00
63317;DHT22;49822;41.468;13.560;2023-07-20T06:37:35;27.20;87.20
63317;DHT22;49822;41.468;13.560;2023-07-20T06:40:03;27.20;87.10
63317;DHT22;49822;41.468;13.560;2023-07-20T06:42:31;27.30;86.80
63317;DHT22;49822;41.468;13.560;2023-07-20T06:44:58;27.40;86.10
63317;DHT22;49822;41.468;13.560;2023-07-20T06:47:23;27.60;86.50
63317;DHT22;49822;41.468;13.560;2023-07-20T06:49:49;27.70;85.90
63317;DHT22;49822;41.468;13.560;2023-07-20T06:52:16;27.80;85.80
63317;DHT22;49822;41.468;13.560;2023-07-20T06:54:42;27.90;85.40
63317;DHT22;49822;41.468;13.560;2023-07-20T06:57:09;28.10;85.10
63317;DHT22;49822;41.468;13.560;2023-07-20T06:59:36;28.10;85.50
63317;DHT22;49822;41.468;13.560;2023-07-20T07:02:04;28.20;85.10
63317;DHT22;49822;41.468;13.560;2023-07-20T07:04:33;28.30;84.70
63317;DHT22;49822;41.468;13.560;2023-07-20T07:07:01;28.40;84.60
63317;DHT22;49822;41.468;13.560;2023-07-20T07:09:28;28.40;84.80
63317;DHT22;49822;41.468;13.560;2023-07-20T07:11:54;28.60;84.30
63317;DHT22;49822;41.468;13.560;2023-07-20T07:14:20;28.70;83.90
63317;DHT22;49822;41.468;13.560;2023-07-20T07:16:47;28.80;84.00
63317;DHT22;49822;41.468;13.560;2023-07-20T07:19:13;28.90;83.30
63317;DHT22;49822;41.468;13.560;2023-07-20T07:21:39;28.90;83.10
63317;DHT22;49822;41.468;13.560;2023-07-20T07:24:06;29.10;83.10
63317;DHT22;49822;41.468;13.560;2023-07-20T07:30:45;29.20;82.00
63317;DHT22;49822;41.468;13.560;2023-07-20T07:33:12;29.30;81.70
63317;DHT22;49822;41.468;13.560;2023-07-20T07:35:38;29.40;82.00
63317;DHT22;49822;41.468;13.560;2023-07-20T07:38:05;29.50;81.70
63317;DHT22;49822;41.468;13.560;2023-07-20T07:40:32;29.50;81.40
63317;DHT22;49822;41.468;13.560;2023-07-20T07:42:58;29.60;81.30
63317;DHT22;49822;41.468;13.560;2023-07-20T07:45:26;29.70;81.20
63317;DHT22;49822;41.468;13.560;2023-07-20T07:47:52;29.80;81.20
63317;DHT22;49822;41.468;13.560;2023-07-20T07:50:22;30.00;81.30
63317;DHT22;49822;41.468;13.560;2023-07-20T07:52:48;30.10;80.40
63317;DHT22;49822;41.468;13.560;2023-07-20T07:55:14;30.10;80.50
63317;DHT22;49822;41.468;13.560;2023-07-20T07:57:42;30.00;80.40
63317;DHT22;49822;41.468;13.560;2023-07-20T08:00:09;30.00;80.90
63317;DHT22;49822;41.468;13.560;2023-07-20T08:02:43;30.10;80.90
63317;DHT22;49822;41.468;13.560;2023-07-20T08:05:09;30.20;80.50
63317;DHT22;49822;41.468;13.560;2023-07-20T08:07:37;30.30;79.80
63317;DHT22;49822;41.468;13.560;2023-07-20T08:10:04;30.40;79.40
63317;DHT22;49822;41.468;13.560;2023-07-20T08:12:33;30.50;80.00
63317;DHT22;49822;41.468;13.560;2023-07-20T08:14:59;30.60;79.40
63317;DHT22;49822;41.468;13.560;2023-07-20T08:17:25;30.70;79.20
63317;DHT22;49822;41.468;13.560;2023-07-20T08:19:52;30.80;77.40
63317;DHT22;49822;41.468;13.560;2023-07-20T08:22:18;30.90;77.70
63317;DHT22;49822;41.468;13.560;2023-07-20T08:24:44;31.00;78.00
63317;DHT22;49822;41.468;13.560;2023-07-20T08:27:10;30.90;77.70
63317;DHT22;49822;41.468;13.560;2023-07-20T08:29:37;30.90;78.10
63317;DHT22;49822;41.468;13.560;2023-07-20T08:32:04;31.10;78.00
63317;DHT22;49822;41.468;13.560;2023-07-20T08:34:34;31.30;76.80
63317;DHT22;49822;41.468;13.560;2023-07-20T08:37:01;31.30;77.10
63317;DHT22;49822;41.468;13.560;2023-07-20T08:39:27;31.30;76.30
63317;DHT22;49822;41.468;13.560;2023-07-20T08:41:54;31.50;76.40
63317;DHT22;49822;41.468;13.560;2023-07-20T08:44:21;31.70;76.80
63317;DHT22;49822;41.468;13.560;2023-07-20T08:46:49;31.80;76.80
63317;DHT22;49822;41.468;13.560;2023-07-20T08:49:17;31.80;75.20
63317;DHT22;49822;41.468;13.560;2023-07-20T08:51:46;32.00;75.00
63317;DHT22;49822;41.468;13.560;2023-07-20T08:54:13;31.90;73.90
63317;DHT22;49822;41.468;13.560;2023-07-20T08:56:41;31.90;75.20
63317;DHT22;49822;41.468;13.560;2023-07-20T08:59:08;32.00;74.90
63317;DHT22;49822;41.468;13.560;2023-07-20T09:01:36;31.90;74.40
63317;DHT22;49822;41.468;13.560;2023-07-20T09:04:05;32.00;75.00
63317;DHT22;49822;41.468;13.560;2023-07-20T09:06:31;32.30;74.90
63317;DHT22;49822;41.468;13.560;2023-07-20T09:08:57;32.40;74.50
63317;DHT22;49822;41.468;13.560;2023-07-20T09:11:23;32.40;74.50
63317;DHT22;49822;41.468;13.560;2023-07-20T09:14:05;32.50;74.50
63317;DHT22;49822;41.468;13.560;2023-07-20T09:16:32;32.60;73.10
63317;DHT22;49822;41.468;13.560;2023-07-20T09:18:58;32.70;74.00
63317;DHT22;49822;41.468;13.560;2023-07-20T09:21:29;32.70;73.40
63317;DHT22;49822;41.468;13.560;2023-07-20T09:23:59;32.70;73.00
63317;DHT22;49822;41.468;13.560;2023-07-20T09:26:25;32.80;72.80
63317;DHT22;49822;41.468;13.560;2023-07-20T09:28:54;33.00;72.60
63317;DHT22;49822;41.468;13.560;2023-07-20T09:31:22;32.90;73.50
63317;DHT22;49822;41.468;13.560;2023-07-20T09:33:49;32.80;73.00
63317;DHT22;49822;41.468;13.560;2023-07-20T09:36:15;32.80;74.40
63317;DHT22;49822;41.468;13.560;2023-07-20T09:38:42;33.00;74.40
63317;DHT22;49822;41.468;13.560;2023-07-20T09:41:13;33.10;73.00
63317;DHT22;49822;41.468;13.560;2023-07-20T09:43:41;33.00;73.40
63317;DHT22;49822;41.468;13.560;2023-07-20T09:46:07;33.20;73.40
63317;DHT22;49822;41.468;13.560;2023-07-20T09:48:34;33.30;73.10
63317;DHT22;49822;41.468;13.560;2023-07-20T09:51:00;33.50;73.80
63317;DHT22;49822;41.468;13.560;2023-07-20T09:53:27;33.60;73.30
63317;DHT22;49822;41.468;13.560;2023-07-20T09:55:54;33.70;74.00
63317;DHT22;49822;41.468;13.560;2023-07-20T09:58:21;34.00;73.00
63317;DHT22;49822;41.468;13.560;2023-07-20T10:00:52;34.10;72.40
63317;DHT22;49822;41.468;13.560;2023-07-20T10:03:28;34.10;72.40
63317;DHT22;49822;41.468;13.560;2023-07-20T10:06:04;34.20;72.70
63317;DHT22;49822;41.468;13.560;2023-07-20T10:08:32;34.20;72.20
63317;DHT22;49822;41.468;13.560;2023-07-20T10:11:00;34.40;71.60
63317;DHT22;49822;41.468;13.560;2023-07-20T10:13:29;34.50;71.40
63317;DHT22;49822;41.468;13.560;2023-07-20T10:16:10;34.40;70.80
63317;DHT22;49822;41.468;13.560;2023-07-20T10:19:07;34.50;72.00
63317;DHT22;49822;41.468;13.560;2023-07-20T10:21:40;34.70;70.00
63317;DHT22;49822;41.468;13.560;2023-07-20T10:24:08;34.90;70.40
63317;DHT22;49822;41.468;13.560;2023-07-20T10:26:37;34.90;70.10
63317;DHT22;49822;41.468;13.560;2023-07-20T10:29:03;35.10;69.90
63317;DHT22;49822;41.468;13.560;2023-07-20T10:31:30;35.20;69.40
63317;DHT22;49822;41.468;13.560;2023-07-20T10:33:57;35.30;69.00
63317;DHT22;49822;41.468;13.560;2023-07-20T10:36:27;35.40;69.80
63317;DHT22;49822;41.468;13.560;2023-07-20T10:38:55;35.60;69.20
63317;DHT22;49822;41.468;13.560;2023-07-20T10:41:27;35.70;69.00
63317;DHT22;49822;41.468;13.560;2023-07-20T10:44:07;35.70;68.10
63317;DHT22;49822;41.468;13.560;2023-07-20T10:49:09;35.90;67.90
63317;DHT22;49822;41.468;13.560;2023-07-20T10:51:46;36.00;66.40
63317;DHT22;49822;41.468;13.560;2023-07-20T10:56:51;36.10;67.60
63317;DHT22;49822;41.468;13.560;2023-07-20T11:01:55;36.30;67.30
63317;DHT22;49822;41.468;13.560;2023-07-20T11:04:44;36.40;66.80
63317;DHT22;49822;41.468;13.560;2023-07-20T11:07:16;36.60;66.60
63317;DHT22;49822;41.468;13.560;2023-07-20T11:09:43;36.60;66.90
63317;DHT22;49822;41.468;13.560;2023-07-20T11:12:13;36.70;65.50
63317;DHT22;49822;41.468;13.560;2023-07-20T11:14:44;36.50;66.20
63317;DHT22;49822;41.468;13.560;2023-07-20T11:17:18;36.60;66.70
63317;DHT22;49822;41.468;13.560;2023-07-20T11:19:56;36.80;67.20
63317;DHT22;49822;41.468;13.560;2023-07-20T11:22:24;36.90;65.40
63317;DHT22;49822;41.468;13.560;2023-07-20T11:24:55;36.90;65.30
63317;DHT22;49822;41.468;13.560;2023-07-20T11:27:22;37.00;65.40
63317;DHT22;49822;41.468;13.560;2023-07-20T11:29:48;37.20;65.70
63317;DHT22;49822;41.468;13.560;2023-07-20T11:32:22;37.50;64.00
63317;DHT22;49822;41.468;13.560;2023-07-20T11:34:49;37.50;63.70
63317;DHT22;49822;41.468;13.560;2023-07-20T11:37:16;37.30;64.40
63317;DHT22;49822;41.468;13.560;2023-07-20T11:39:42;37.40;64.00
63317;DHT22;49822;41.468;13.560;2023-07-20T11:42:09;37.60;63.70
63317;DHT22;49822;41.468;13.560;2023-07-20T11:44:35;37.60;64.10
63317;DHT22;49822;41.468;13.560;2023-07-20T11:47:08;37.80;63.30
63317;DHT22;49822;41.468;13.560;2023-07-20T11:49:39;38.00;63.50
63317;DHT22;49822;41.468;13.560;2023-07-20T11:52:07;38.10;62.80
63317;DHT22;49822;41.468;13.560;2023-07-20T11:54:35;38.10;63.90
63317;DHT22;49822;41.468;13.560;2023-07-20T11:57:02;38.20;63.90
63317;DHT22;49822;41.468;13.560;2023-07-20T11:59:28;38.40;62.80
63317;DHT22;49822;41.468;13.560;2023-07-20T12:01:54;38.60;62.00
63317;DHT22;49822;41.468;13.560;2023-07-20T12:04:23;38.70;61.90
63317;DHT22;49822;41.468;13.560;2023-07-20T12:06:50;38.80;61.80
63317;DHT22;49822;41.468;13.560;2023-07-20T12:09:17;38.80;60.80
63317;DHT22;49822;41.468;13.560;2023-07-20T12:11:44;38.90;62.30
63317;DHT22;49822;41.468;13.560;2023-07-20T12:14:13;39.00;62.30
63317;DHT22;49822;41.468;13.560;2023-07-20T12:16:39;39.00;61.40
63317;DHT22;49822;41.468;13.560;2023-07-20T12:19:09;39.20;61.40
63317;DHT22;49822;41.468;13.560;2023-07-20T12:21:37;39.30;61.00
63317;DHT22;49822;41.468;13.560;2023-07-20T12:24:04;39.30;60.70
63317;DHT22;49822;41.468;13.560;2023-07-20T12:26:31;39.20;61.60
63317;DHT22;49822;41.468;13.560;2023-07-20T12:28:57;39.30;60.80
63317;DHT22;49822;41.468;13.560;2023-07-20T12:31:25;39.40;60.90
63317;DHT22;49822;41.468;13.560;2023-07-20T12:33:52;39.40;60.10
63317;DHT22;49822;41.468;13.560;2023-07-20T12:36:19;39.50;60.80
63317;DHT22;49822;41.468;13.560;2023-07-20T12:38:45;39.50;61.10
63317;DHT22;49822;41.468;13.560;2023-07-20T12:41:12;39.60;61.00
63317;DHT22;49822;41.468;13.560;2023-07-20T12:43:39;39.80;60.30
63317;DHT22;49822;41.468;13.560;2023-07-20T12:46:06;39.70;60.50
63317;DHT22;49822;41.468;13.560;2023-07-20T12:48:32;39.70;59.60
63317;DHT22;49822;41.468;13.560;2023-07-20T12:50:58;39.70;59.20
63317;DHT22;49822;41.468;13.560;2023-07-20T12:53:25;39.70;61.30
63317;DHT22;49822;41.468;13.560;2023-07-20T12:55:51;39.80;60.50
63317;DHT22;49822;41.468;13.560;2023-07-20T12:58:17;39.80;60.40
63317;DHT22;49822;41.468;13.560;2023-07-20T13:00:44;39.80;59.50
63317;DHT22;49822;41.468;13.560;2023-07-20T13:03:12;39.80;60.10
63317;DHT22;49822;41.468;13.560;2023-07-20T13:05:39;39.90;59.10
63317;DHT22;49822;41.468;13.560;2023-07-20T13:08:05;39.90;59.50
63317;DHT22;49822;41.468;13.560;2023-07-20T13:10:31;39.80;59.50
63317;DHT22;49822;41.468;13.560;2023-07-20T13:13:00;40.00;59.00
63317;DHT22;49822;41.468;13.560;2023-07-20T13:15:35;39.80;60.10
63317;DHT22;49822;41.468;13.560;2023-07-20T13:18:08;40.00;59.60
63317;DHT22;49822;41.468;13.560;2023-07-20T13:20:35;40.00;60.70
63317;DHT22;49822;41.468;13.560;2023-07-20T13:23:01;39.50;61.80
63317;DHT22;49822;41.468;13.560;2023-07-20T13:25:29;39.30;61.90
63317;DHT22;49822;41.468;13.560;2023-07-20T13:28:00;39.10;62.00
63317;DHT22;49822;41.468;13.560;2023-07-20T13:30:30;38.80;62.60
63317;DHT22;49822;41.468;13.560;2023-07-20T13:32:57;38.50;63.00
63317;DHT22;49822;41.468;13.560;2023-07-20T13:35:23;38.00;64.60
63317;DHT22;49822;41.468;13.560;2023-07-20T13:37:50;37.20;66.40
63317;DHT22;49822;41.468;13.560;2023-07-20T13:40:16;36.80;66.40
63317;DHT22;49822;41.468;13.560;2023-07-20T13:42:44;36.80;66.80
63317;DHT22;49822;41.468;13.560;2023-07-20T13:45:11;36.70;67.20
63317;DHT22;49822;41.468;13.560;2023-07-20T13:47:37;36.50;68.40
63317;DHT22;49822;41.468;13.560;2023-07-20T13:50:04;36.40;67.70
63317;DHT22;49822;41.468;13.560;2023-07-20T13:52:31;36.20;67.20
63317;DHT22;49822;41.468;13.560;2023-07-20T13:54:57;36.10;68.10
63317;DHT22;49822;41.468;13.560;2023-07-20T13:57:23;36.00;67.80
63317;DHT22;49822;41.468;13.560;2023-07-20T13:59:50;35.80;69.50
63317;DHT22;49822;41.468;13.560;2023-07-20T14:02:16;35.80;69.20
63317;DHT22;49822;41.468;13.560;2023-07-20T14:04:42;35.80;68.80
63317;DHT22;49822;41.468;13.560;2023-07-20T14:07:08;35.70;69.20
63317;DHT22;49822;41.468;13.560;2023-07-20T14:09:35;35.60;69.80
63317;DHT22;49822;41.468;13.560;2023-07-20T14:12:01;35.50;69.70
63317;DHT22;49822;41.468;13.560;2023-07-20T14:14:26;35.20;69.70
63317;DHT22;49822;41.468;13.560;2023-07-20T14:16:52;35.30;70.30
63317;DHT22;49822;41.468;13.560;2023-07-20T14:19:19;35.30;70.40
63317;DHT22;49822;41.468;13.560;2023-07-20T14:21:45;35.50;71.00
63317;DHT22;49822;41.468;13.560;2023-07-20T14:24:11;35.30;71.50
63317;DHT22;49822;41.468;13.560;2023-07-20T14:26:37;35.00;69.40
63317;DHT22;49822;41.468;13.560;2023-07-20T14:29:03;35.10;70.50
63317;DHT22;49822;41.468;13.560;2023-07-20T14:31:29;35.10;71.10
63317;DHT22;49822;41.468;13.560;2023-07-20T14:33:55;35.10;71.30
63317;DHT22;49822;41.468;13.560;2023-07-20T14:36:22;35.00;71.70
63317;DHT22;49822;41.468;13.560;2023-07-20T14:38:48;34.90;71.70
63317;DHT22;49822;41.468;13.560;2023-07-20T14:41:14;34.80;71.90
63317;DHT22;49822;41.468;13.560;2023-07-20T14:43:41;34.80;71.30
63317;DHT22;49822;41.468;13.560;2023-07-20T14:46:07;34.70;71.80
63317;DHT22;49822;41.468;13.560;2023-07-20T14:48:33;34.70;71.30
63317;DHT22;49822;41.468;13.560;2023-07-20T14:50:59;34.70;72.10
63317;DHT22;49822;41.468;13.560;2023-07-20T14:53:25;34.60;71.70
63317;DHT22;49822;41.468;13.560;2023-07-20T14:56:01;34.60;72.40
63317;DHT22;49822;41.468;13.560;2023-07-20T14:58:27;34.70;73.00
63317;DHT22;49822;41.468;13.560;2023-07-20T15:00:54;34.70;72.10
63317;DHT22;49822;41.468;13.560;2023-07-20T15:03:20;34.60;73.20
63317;DHT22;49822;41.468;13.560;2023-07-20T15:05:46;34.60;72.40
63317;DHT22;49822;41.468;13.560;2023-07-20T15:08:12;34.50;73.60
63317;DHT22;49822;41.468;13.560;2023-07-20T15:10:38;34.40;73.40
63317;DHT22;49822;41.468;13.560;2023-07-20T15:13:04;34.40;74.10
63317;DHT22;49822;41.468;13.560;2023-07-20T15:15:32;34.40;74.70
63317;DHT22;49822;41.468;13.560;2023-07-20T15:17:58;34.40;74.90
63317;DHT22;49822;41.468;13.560;2023-07-20T15:20:24;34.20;74.20
63317;DHT22;49822;41.468;13.560;2023-07-20T15:22:51;34.20;74.00
63317;DHT22;49822;41.468;13.560;2023-07-20T15:25:18;34.20;74.80
63317;DHT22;49822;41.468;13.560;2023-07-20T15:27:44;34.20;74.50
63317;DHT22;49822;41.468;13.560;2023-07-20T15:30:11;34.00;75.70
63317;DHT22;49822;41.468;13.560;2023-07-20T15:32:37;34.00;75.30
63317;DHT22;49822;41.468;13.560;2023-07-20T15:35:04;34.00;75.10
63317;DHT22;49822;41.468;13.560;2023-07-20T15:37:32;34.00;75.20
63317;DHT22;49822;41.468;13.560;2023-07-20T15:39:58;33.90;75.00
63317;DHT22;49822;41.468;13.560;2023-07-20T15:42:24;33.90;76.10